createdAt,value
2022-12-11T00:01:57.837Z,119.05
2022-12-11T00:04:24.263Z,112.70
2022-12-11T00:06:50.668Z,113.90
2022-12-11T00:09:17.549Z,103.85
2022-12-11T00:11:44.041Z,132.30
2022-12-11T00:14:10.521Z,119.32
2022-12-11T00:16:36.784Z,102.13
2022-12-11T00:19:03.226Z,110.82
2022-12-11T00:21:29.625Z,113.78
2022-12-11T00:23:55.938Z,121.13
2022-12-11T00:26:22.509Z,102.03
2022-12-11T00:28:51.958Z,110.63
2022-12-11T00:31:18.977Z,116.68
2022-12-11T00:33:45.314Z,106.20
2022-12-11T00:36:16.122Z,95.32
2022-12-11T00:38:42.983Z,93.63
2022-12-11T00:41:09.523Z,96.38
2022-12-11T00:43:35.842Z,99.18
2022-12-11T00:46:02.256Z,106.07
2022-12-11T00:48:28.603Z,106.10
2022-12-11T00:50:54.918Z,112.65
2022-12-11T00:53:21.402Z,101.78
2022-12-11T00:55:47.698Z,107.85
2022-12-11T00:58:14.020Z,112.65
2022-12-11T01:00:40.722Z,113.50
2022-12-11T01:03:07.249Z,106.18
2022-12-11T01:05:34.059Z,107.55
2022-12-11T01:08:00.508Z,109.05
2022-12-11T01:10:27.110Z,104.20
2022-12-11T01:12:55.191Z,126.30
2022-12-11T01:15:22.973Z,125.68
2022-12-11T01:17:52.159Z,126.45
2022-12-11T01:20:19.472Z,133.20
2022-12-11T01:22:45.713Z,125.95
2022-12-11T01:25:12.184Z,124.40
2022-12-11T01:27:39.016Z,125.72
2022-12-11T01:30:07.424Z,136.93
2022-12-11T01:32:34.011Z,128.27
2022-12-11T01:35:00.420Z,124.05
2022-12-11T01:37:26.654Z,119.55
2022-12-11T01:39:52.985Z,138.88
2022-12-11T01:42:20.234Z,128.93
2022-12-11T01:44:46.518Z,120.93
2022-12-11T01:47:12.846Z,139.30
2022-12-11T01:49:40.069Z,129.63
2022-12-11T01:52:08.120Z,117.38
2022-12-11T01:54:34.567Z,110.63
2022-12-11T01:57:02.675Z,140.57
2022-12-11T01:59:30.966Z,109.80
2022-12-11T02:01:59.518Z,119.47
2022-12-11T02:04:25.939Z,111.53
2022-12-11T02:06:53.048Z,118.03
2022-12-11T02:09:21.977Z,107.07
2022-12-11T02:12:06.773Z,118.80
2022-12-11T02:14:45.288Z,106.20
2022-12-11T02:17:18.796Z,120.07
2022-12-11T02:19:52.960Z,109.13
2022-12-11T02:22:42.258Z,123.65
2022-12-11T02:25:11.813Z,109.68
2022-12-11T02:27:50.334Z,107.70
2022-12-11T02:30:16.941Z,111.93
2022-12-11T02:32:48.906Z,107.18
2022-12-11T02:35:18.534Z,98.18
2022-12-11T02:37:46.459Z,100.70
2022-12-11T02:40:14.353Z,105.60
2022-12-11T02:42:42.346Z,94.95
2022-12-11T02:45:09.669Z,95.43
2022-12-11T02:47:37.108Z,98.57
2022-12-11T02:50:07.276Z,92.05
2022-12-11T02:52:34.653Z,93.15
2022-12-11T02:55:01.548Z,86.18
2022-12-11T02:57:31.261Z,86.18
2022-12-11T02:59:57.617Z,86.70
2022-12-11T03:02:24.020Z,93.25
2022-12-11T03:04:50.335Z,85.45
2022-12-11T03:07:23.283Z,82.20
2022-12-11T03:09:50.178Z,88.38
2022-12-11T03:12:18.864Z,79.28
2022-12-11T03:14:45.289Z,92.72
2022-12-11T03:17:21.109Z,84.70
2022-12-11T03:19:47.382Z,80.22
2022-12-11T03:22:19.031Z,86.03
2022-12-11T03:24:53.039Z,76.05
2022-12-11T03:27:19.346Z,87.22
2022-12-11T03:29:53.960Z,76.82
2022-12-11T03:32:23.102Z,79.57
2022-12-11T03:34:49.332Z,86.13
2022-12-11T03:37:16.620Z,74.75
2022-12-11T03:39:44.877Z,70.97
2022-12-11T03:42:13.171Z,82.32
2022-12-11T03:44:40.284Z,80.20
2022-12-11T03:47:07.990Z,70.60
2022-12-11T03:49:36.782Z,75.95
2022-12-11T03:52:03.988Z,68.50
2022-12-11T03:54:30.971Z,66.07
2022-12-11T03:56:59.224Z,63.35
2022-12-11T03:59:25.537Z,65.93
2022-12-11T04:01:51.880Z,63.05
2022-12-11T04:04:18.403Z,51.83
2022-12-11T04:06:44.714Z,49.22
2022-12-11T04:09:11.161Z,53.38
2022-12-11T04:11:37.638Z,53.72
2022-12-11T04:14:27.298Z,47.25
2022-12-11T04:16:53.589Z,45.53
2022-12-11T04:19:38.902Z,42.05
2022-12-11T04:22:23.625Z,39.25
2022-12-11T04:24:50.259Z,39.75
2022-12-11T04:27:37.180Z,42.17
2022-12-11T04:30:04.819Z,41.22
2022-12-11T04:32:31.112Z,40.13
2022-12-11T04:34:57.346Z,35.60
2022-12-11T04:37:23.740Z,37.72
2022-12-11T04:39:50.140Z,38.78
2022-12-11T04:42:16.517Z,37.90
2022-12-11T04:44:42.807Z,37.90
2022-12-11T04:47:09.130Z,41.13
2022-12-11T04:49:35.420Z,39.08
2022-12-11T04:52:01.814Z,47.50
2022-12-11T04:54:29.719Z,42.38
2022-12-11T04:56:56.022Z,42.63
2022-12-11T04:59:22.285Z,42.63
2022-12-11T05:01:48.661Z,44.65
2022-12-11T05:04:15.030Z,40.08
2022-12-11T05:06:41.403Z,39.83
2022-12-11T05:09:10.981Z,39.65
2022-12-11T05:11:37.652Z,40.05
2022-12-11T05:14:04.362Z,41.33
2022-12-11T05:16:30.739Z,40.00
2022-12-11T05:18:57.018Z,41.30
2022-12-11T05:21:23.365Z,38.42
2022-12-11T05:23:49.636Z,42.05
2022-12-11T05:26:17.140Z,41.10
2022-12-11T05:28:43.787Z,36.28
2022-12-11T05:31:13.062Z,36.67
2022-12-11T05:33:39.557Z,35.63
2022-12-11T05:36:06.457Z,36.42
2022-12-11T05:38:32.784Z,39.72
2022-12-11T05:41:00.575Z,38.42
2022-12-11T05:43:27.803Z,37.28
2022-12-11T05:45:54.402Z,40.05
2022-12-11T05:48:20.726Z,37.80
2022-12-11T05:50:56.779Z,35.47
2022-12-11T05:53:23.073Z,41.38
2022-12-11T05:55:49.464Z,43.00
2022-12-11T05:58:15.802Z,43.92
2022-12-11T06:00:42.450Z,37.17
2022-12-11T06:03:08.803Z,44.53
2022-12-11T06:05:38.702Z,43.95
2022-12-11T06:08:05.153Z,45.73
2022-12-11T06:10:31.491Z,49.50
2022-12-11T06:12:57.722Z,43.55
2022-12-11T06:15:24.054Z,45.60
2022-12-11T06:17:50.309Z,45.97
2022-12-11T06:20:16.634Z,46.95
2022-12-11T06:22:42.956Z,47.80
2022-12-11T06:25:09.894Z,50.60
2022-12-11T06:27:36.356Z,46.55
2022-12-11T06:30:02.738Z,41.95
2022-12-11T06:32:29.025Z,43.33
2022-12-11T06:34:55.425Z,45.47
2022-12-11T06:37:21.730Z,45.63
2022-12-11T06:39:47.957Z,50.13
2022-12-11T06:42:14.246Z,46.08
2022-12-11T06:44:40.529Z,44.72
2022-12-11T06:47:06.844Z,51.45
2022-12-11T06:49:33.334Z,48.53
2022-12-11T06:51:59.603Z,51.00
2022-12-11T06:54:27.057Z,51.10
2022-12-11T06:56:53.284Z,53.45
2022-12-11T06:59:19.519Z,55.78
2022-12-11T07:01:45.814Z,50.40
2022-12-11T07:04:12.041Z,57.47
2022-12-11T07:06:38.262Z,55.72
2022-12-11T07:09:05.206Z,55.45
2022-12-11T07:11:31.488Z,48.30
2022-12-11T07:14:00.717Z,48.53
2022-12-11T07:16:27.621Z,53.30
2022-12-11T07:18:53.925Z,44.53
2022-12-11T07:21:20.660Z,52.50
2022-12-11T07:23:47.109Z,44.45
2022-12-11T07:26:14.853Z,50.47
2022-12-11T07:28:41.504Z,44.13
2022-12-11T07:31:18.281Z,40.55
2022-12-11T07:33:44.977Z,46.03
2022-12-11T07:36:12.489Z,43.28
2022-12-11T07:38:38.854Z,44.53
2022-12-11T07:41:06.396Z,45.20
2022-12-11T07:43:33.210Z,48.80
2022-12-11T07:46:06.668Z,45.65
2022-12-11T07:48:34.941Z,44.50
2022-12-11T07:51:28.072Z,43.72
2022-12-11T07:53:59.458Z,43.22
2022-12-11T07:56:25.990Z,46.40
2022-12-11T07:58:52.272Z,53.90
2022-12-11T08:01:20.142Z,47.75
2022-12-11T08:03:46.603Z,47.83
2022-12-11T08:06:12.861Z,50.38
2022-12-11T08:08:39.829Z,47.22
2022-12-11T08:11:07.055Z,48.75
2022-12-11T08:13:33.414Z,48.20
2022-12-11T08:16:02.777Z,43.03
2022-12-11T08:18:30.312Z,45.53
2022-12-11T08:20:56.592Z,43.60
2022-12-11T08:23:22.830Z,47.08
2022-12-11T08:25:49.125Z,50.83
2022-12-11T08:28:15.421Z,49.78
2022-12-11T08:30:41.753Z,40.35
2022-12-11T08:33:08.018Z,45.60
2022-12-11T08:35:38.039Z,43.13
2022-12-11T08:38:04.335Z,41.63
2022-12-11T08:40:30.662Z,40.20
2022-12-11T08:42:57.022Z,37.85
2022-12-11T08:45:23.319Z,41.58
2022-12-11T08:47:49.635Z,40.92
2022-12-11T08:50:15.861Z,37.85
2022-12-11T08:52:42.205Z,44.88
2022-12-11T08:55:08.879Z,41.78
2022-12-11T08:57:35.336Z,44.97
2022-12-11T09:00:01.604Z,41.75
2022-12-11T09:02:27.975Z,38.80
2022-12-11T09:04:54.310Z,40.42
2022-12-11T09:07:20.613Z,38.53
2022-12-11T09:09:46.854Z,43.15
2022-12-11T09:12:13.864Z,41.08
2022-12-11T09:14:40.213Z,42.50
2022-12-11T09:17:06.515Z,39.95
2022-12-11T09:19:32.818Z,42.00
2022-12-11T09:21:59.237Z,44.15
2022-12-11T09:24:25.532Z,46.80
2022-12-11T09:26:51.781Z,46.17
2022-12-11T09:29:18.211Z,42.53
2022-12-11T09:31:44.567Z,38.97
2022-12-11T09:34:11.833Z,40.85
2022-12-11T09:36:39.116Z,42.33
2022-12-11T09:39:06.434Z,47.35
2022-12-11T09:41:35.851Z,42.30
2022-12-11T09:44:22.955Z,41.22
2022-12-11T09:46:50.823Z,43.33
2022-12-11T09:49:23.239Z,46.38
2022-12-11T09:52:00.502Z,41.95
2022-12-11T09:54:26.951Z,39.63
2022-12-11T09:57:05.071Z,43.42
2022-12-11T09:59:44.310Z,42.78
2022-12-11T10:02:17.662Z,54.90
2022-12-11T10:04:46.738Z,49.22
2022-12-11T10:07:13.205Z,51.03
2022-12-11T10:09:51.589Z,44.20
2022-12-11T10:12:47.041Z,61.50
2022-12-11T10:15:25.329Z,51.45
2022-12-11T10:17:53.805Z,42.75
2022-12-11T10:20:20.624Z,48.78
2022-12-11T10:22:48.260Z,43.97
2022-12-11T10:25:20.202Z,42.55
2022-12-11T10:27:46.532Z,39.72
2022-12-11T10:30:12.893Z,37.53
2022-12-11T10:32:44.930Z,37.28
2022-12-11T10:35:18.006Z,41.42
2022-12-11T10:37:44.286Z,35.13
2022-12-11T10:40:11.639Z,39.58
2022-12-11T10:42:42.581Z,36.10
2022-12-11T10:45:16.026Z,36.47
2022-12-11T10:47:42.327Z,37.15
2022-12-11T10:50:22.608Z,36.97
2022-12-11T10:52:48.850Z,33.67
2022-12-11T10:55:22.622Z,37.60
2022-12-11T10:57:56.986Z,39.20
2022-12-11T11:00:34.336Z,86.47
2022-12-11T11:03:01.744Z,68.15
2022-12-11T11:05:34.547Z,36.80
2022-12-11T11:08:03.684Z,35.67
2022-12-11T11:10:30.091Z,36.38
2022-12-11T11:13:00.444Z,51.58
2022-12-11T11:15:27.925Z,34.45
2022-12-11T11:17:56.141Z,33.33
2022-12-11T11:20:26.951Z,33.65
2022-12-11T11:22:57.564Z,35.50
2022-12-11T11:25:28.547Z,33.80
2022-12-11T11:27:59.940Z,35.65
2022-12-11T11:30:34.445Z,34.50
2022-12-11T11:33:05.286Z,37.85
2022-12-11T11:35:31.946Z,32.53
2022-12-11T11:38:02.259Z,31.67
2022-12-11T11:40:36.675Z,37.83
2022-12-11T11:43:22.501Z,33.95
2022-12-11T11:46:07.210Z,32.70
2022-12-11T11:48:34.116Z,35.08
2022-12-11T11:51:06.020Z,35.28
2022-12-11T11:53:37.959Z,35.22
2022-12-11T11:56:21.312Z,30.25
2022-12-11T11:58:50.662Z,34.15
2022-12-11T12:01:18.741Z,30.33
2022-12-11T12:03:52.150Z,31.35
2022-12-11T12:06:21.454Z,31.23
2022-12-11T12:08:57.899Z,32.20
2022-12-11T12:11:43.012Z,32.20
2022-12-11T12:17:23.652Z,36.72
2022-12-11T12:20:08.660Z,30.70
2022-12-11T12:22:40.943Z,33.70
2022-12-11T12:25:26.749Z,35.78
2022-12-11T12:27:59.420Z,32.50
2022-12-11T12:30:26.876Z,34.78
2022-12-11T12:32:53.142Z,33.13
2022-12-11T12:35:29.882Z,30.25
2022-12-11T12:37:58.436Z,33.63
2022-12-11T12:40:24.739Z,36.28
2022-12-11T12:43:03.077Z,41.88
2022-12-11T12:45:37.128Z,36.70
2022-12-11T12:48:03.420Z,32.50
2022-12-11T12:50:37.100Z,35.78
2022-12-11T12:53:04.734Z,41.65
2022-12-11T12:55:31.936Z,29.60
2022-12-11T12:58:00.494Z,33.53
2022-12-11T13:00:40.104Z,36.05
2022-12-11T13:03:23.061Z,45.58
2022-12-11T13:05:55.099Z,41.33
2022-12-11T13:08:24.831Z,37.55
2022-12-11T13:10:58.403Z,41.70
2022-12-11T13:13:29.530Z,38.55
2022-12-11T13:16:05.450Z,41.95
2022-12-11T13:18:35.055Z,38.38
2022-12-11T13:21:02.060Z,42.40
2022-12-11T13:23:29.915Z,48.70
2022-12-11T13:25:58.172Z,41.42
2022-12-11T13:28:33.356Z,41.05
2022-12-11T13:31:14.909Z,43.08
2022-12-11T13:33:51.747Z,43.35
2022-12-11T13:36:25.022Z,45.38
2022-12-11T13:39:11.730Z,48.90
2022-12-11T13:41:38.271Z,46.45
2022-12-11T13:44:05.066Z,55.33
2022-12-11T13:46:33.754Z,43.60
2022-12-11T13:49:02.287Z,44.88
2022-12-11T13:51:29.748Z,48.65
2022-12-11T13:54:04.940Z,51.58
2022-12-11T13:56:31.225Z,46.40
2022-12-11T13:58:57.579Z,49.05
2022-12-11T14:01:27.346Z,47.17
2022-12-11T14:03:55.350Z,46.47
2022-12-11T14:06:22.412Z,44.75
2022-12-11T14:08:50.101Z,46.28
2022-12-11T14:11:24.820Z,45.13
2022-12-11T14:13:51.114Z,48.15
2022-12-11T14:16:21.832Z,49.20
2022-12-11T14:21:21.995Z,47.10
2022-12-11T14:23:52.269Z,50.53
2022-12-11T14:26:23.185Z,52.30
2022-12-11T14:28:49.470Z,44.92
2022-12-11T14:31:18.640Z,53.58
2022-12-11T14:33:48.128Z,57.92
2022-12-11T14:36:15.510Z,58.90
2022-12-11T14:38:47.225Z,60.75
2022-12-11T14:41:16.527Z,61.17
2022-12-11T14:43:44.373Z,51.60
2022-12-11T14:46:15.460Z,48.80
2022-12-11T14:48:47.953Z,53.97
2022-12-11T14:51:15.941Z,46.05
2022-12-11T14:53:44.082Z,59.83
2022-12-11T14:56:16.163Z,55.92
2022-12-11T14:58:45.643Z,49.42
2022-12-11T15:01:22.341Z,87.38
2022-12-11T15:03:48.781Z,59.13
2022-12-11T15:06:35.157Z,71.38
2022-12-11T15:09:21.087Z,61.47
2022-12-11T15:11:48.863Z,43.75
2022-12-11T15:14:16.238Z,56.28
2022-12-11T15:16:42.680Z,52.47
2022-12-11T15:19:18.156Z,46.10
2022-12-11T15:21:44.419Z,45.60
2022-12-11T15:24:22.364Z,53.58
2022-12-11T15:26:48.664Z,47.40
2022-12-11T15:29:44.180Z,44.38
2022-12-11T15:32:14.066Z,49.03
2022-12-11T15:34:44.310Z,53.83
2022-12-11T15:37:17.369Z,50.80
2022-12-11T15:39:43.678Z,53.17
2022-12-11T15:42:11.440Z,49.67
2022-12-11T15:44:37.675Z,48.13
2022-12-11T15:47:14.313Z,61.28
2022-12-11T15:49:40.744Z,64.43
2022-12-11T15:52:07.057Z,54.80
2022-12-11T15:54:33.339Z,49.67
2022-12-11T15:57:01.520Z,51.80
2022-12-11T15:59:27.802Z,53.38
2022-12-11T16:01:54.132Z,47.65
2022-12-11T16:04:20.620Z,49.80
2022-12-11T16:06:46.882Z,53.58
2022-12-11T16:09:13.158Z,56.35
2022-12-11T16:11:39.424Z,50.35
2022-12-11T16:14:05.768Z,50.70
2022-12-11T16:16:32.066Z,46.05
2022-12-11T16:18:58.352Z,52.67
2022-12-11T16:21:24.597Z,47.15
2022-12-11T16:23:50.959Z,48.97
2022-12-11T16:26:17.264Z,49.15
2022-12-11T16:28:43.773Z,37.40
2022-12-11T16:31:11.067Z,50.72
2022-12-11T16:33:37.370Z,48.05
2022-12-11T16:36:11.750Z,53.55
2022-12-11T16:38:38.047Z,51.08
2022-12-11T16:41:04.395Z,44.40
2022-12-11T16:43:31.999Z,51.92
2022-12-11T16:45:58.323Z,50.25
2022-12-11T16:48:24.697Z,56.53
2022-12-11T16:50:54.442Z,52.72
2022-12-11T16:53:21.013Z,76.32
2022-12-11T16:55:47.398Z,59.25
2022-12-11T16:58:19.817Z,52.03
2022-12-11T17:00:46.634Z,48.10
2022-12-11T17:03:13.166Z,45.17
2022-12-11T17:05:40.314Z,47.03
2022-12-11T17:08:07.027Z,45.25
2022-12-11T17:10:33.401Z,44.22
2022-12-11T17:13:00.190Z,45.55
2022-12-11T17:15:26.418Z,45.00
2022-12-11T17:17:52.653Z,40.20
2022-12-11T17:20:20.050Z,42.30
2022-12-11T17:22:46.358Z,78.85
2022-12-11T17:25:14.544Z,45.03
2022-12-11T17:27:40.933Z,41.92
2022-12-11T17:30:07.575Z,41.13
2022-12-11T17:32:33.919Z,38.80
2022-12-11T17:35:00.209Z,39.70
2022-12-11T17:37:26.505Z,32.33
2022-12-11T17:39:52.750Z,39.75
2022-12-11T17:42:19.022Z,41.40
2022-12-11T17:44:45.521Z,43.28
2022-12-11T17:47:12.124Z,43.25
2022-12-11T17:49:41.353Z,43.95
2022-12-11T17:52:07.748Z,38.45
2022-12-11T17:54:34.906Z,43.95
2022-12-11T17:57:01.555Z,46.40
2022-12-11T17:59:27.785Z,51.53
2022-12-11T18:01:54.126Z,54.65
2022-12-11T18:04:20.397Z,61.05
2022-12-11T18:06:46.685Z,54.60
2022-12-11T18:09:12.959Z,50.03
2022-12-11T18:11:39.292Z,47.83
2022-12-11T18:14:05.609Z,53.97
2022-12-11T18:16:33.572Z,55.55
2022-12-11T18:19:00.169Z,50.42
2022-12-11T18:21:30.698Z,41.00
2022-12-11T18:23:57.218Z,37.70
2022-12-11T18:26:23.579Z,35.30
2022-12-11T18:28:50.735Z,38.75
2022-12-11T18:31:18.097Z,37.83
2022-12-11T18:33:45.042Z,32.22
2022-12-11T18:36:12.312Z,44.90
2022-12-11T18:38:38.782Z,30.77
2022-12-11T18:41:05.697Z,32.85
2022-12-11T18:43:32.353Z,30.45
2022-12-11T18:45:58.623Z,34.40
2022-12-11T18:48:24.922Z,29.20
2022-12-11T18:50:51.741Z,49.33
2022-12-11T18:53:18.706Z,28.58
2022-12-11T18:55:46.317Z,28.15
2022-12-11T18:58:13.670Z,23.60
2022-12-11T19:00:41.019Z,24.55
2022-12-11T19:03:07.866Z,29.33
2022-12-11T19:05:34.446Z,29.92
2022-12-11T19:08:01.200Z,31.88
2022-12-11T19:10:27.678Z,34.17
2022-12-11T19:12:54.128Z,28.55
2022-12-11T19:15:23.729Z,26.30
2022-12-11T19:17:50.470Z,36.42
2022-12-11T19:20:47.542Z,30.58
2022-12-11T19:23:03.327Z,30.67
2022-12-11T19:25:29.626Z,31.10
2022-12-11T19:27:57.034Z,31.65
2022-12-11T19:30:23.662Z,30.23
2022-12-11T19:32:49.911Z,35.90
2022-12-11T19:35:17.614Z,27.23
2022-12-11T19:37:43.890Z,27.35
2022-12-11T19:40:10.381Z,29.98
2022-12-11T19:42:36.616Z,28.98
2022-12-11T19:45:03.103Z,30.50
2022-12-11T19:47:29.386Z,33.05
2022-12-11T19:49:56.527Z,28.90
2022-12-11T19:52:22.816Z,36.88
2022-12-11T19:54:49.106Z,31.08
2022-12-11T19:57:15.373Z,33.95
2022-12-11T19:59:41.660Z,30.73
2022-12-11T20:02:09.894Z,30.33
2022-12-11T20:04:36.362Z,33.00
2022-12-11T20:07:02.616Z,32.30
2022-12-11T20:09:28.915Z,32.92
2022-12-11T20:11:55.161Z,32.88
2022-12-11T20:14:23.440Z,37.80
2022-12-11T20:19:36.954Z,36.90
2022-12-11T20:22:03.522Z,38.38
2022-12-11T20:24:29.994Z,32.90
2022-12-11T20:26:57.190Z,30.80
2022-12-11T20:29:23.835Z,35.78
2022-12-11T20:31:50.937Z,30.77
2022-12-11T20:34:17.395Z,32.55
2022-12-11T20:36:44.181Z,34.35
2022-12-11T20:39:10.549Z,36.92
2022-12-11T20:41:36.789Z,30.88
2022-12-11T20:44:03.118Z,34.38
2022-12-11T20:46:29.502Z,35.88
2022-12-11T20:48:58.404Z,27.77
2022-12-11T20:51:26.600Z,29.85
2022-12-11T20:53:58.227Z,30.27
2022-12-11T20:56:25.889Z,30.23
2022-12-11T20:58:52.213Z,39.50
2022-12-11T21:01:20.194Z,36.60
2022-12-11T21:03:46.864Z,38.38
2022-12-11T21:06:25.291Z,33.75
2022-12-11T21:08:52.475Z,33.55
2022-12-11T21:11:19.285Z,34.60
2022-12-11T21:13:45.627Z,32.70
2022-12-11T21:16:12.074Z,35.00
2022-12-11T21:18:39.639Z,33.85
2022-12-11T21:21:06.344Z,32.72
2022-12-11T21:23:32.848Z,35.40
2022-12-11T21:25:59.113Z,34.40
2022-12-11T21:28:27.320Z,36.15
2022-12-11T21:31:01.105Z,38.40
2022-12-11T21:33:27.626Z,30.10
2022-12-11T21:35:55.459Z,30.67
2022-12-11T21:38:21.741Z,32.85
2022-12-11T21:40:47.998Z,34.90
2022-12-11T21:43:15.130Z,30.85
2022-12-11T21:46:11.313Z,29.75
2022-12-11T21:48:27.683Z,29.15
2022-12-11T21:50:54.510Z,33.90
2022-12-11T21:53:20.894Z,31.27
2022-12-11T21:55:47.184Z,37.65
2022-12-11T21:58:13.486Z,28.25
2022-12-11T22:00:39.711Z,30.67
2022-12-11T22:03:06.210Z,26.45
2022-12-11T22:05:32.580Z,31.63
2022-12-11T22:07:58.932Z,25.95
2022-12-11T22:10:25.275Z,29.95
2022-12-11T22:12:51.643Z,29.40
2022-12-11T22:15:17.947Z,33.10
2022-12-11T22:17:44.166Z,30.70
2022-12-11T22:20:11.361Z,26.23
2022-12-11T22:22:37.661Z,30.75
2022-12-11T22:25:06.902Z,30.17
2022-12-11T22:27:33.458Z,32.17
2022-12-11T22:29:59.930Z,30.67
2022-12-11T22:32:27.393Z,29.73
2022-12-11T22:34:53.862Z,30.50
2022-12-11T22:37:20.102Z,35.83
2022-12-11T22:39:46.462Z,33.20
2022-12-11T22:42:12.770Z,32.80
2022-12-11T22:44:39.337Z,34.05
2022-12-11T22:47:05.621Z,28.77
2022-12-11T22:49:31.914Z,39.10
2022-12-11T22:51:58.422Z,33.40
2022-12-11T22:54:24.836Z,29.90
2022-12-11T22:56:51.118Z,33.42
2022-12-11T22:59:17.405Z,32.92
2022-12-11T23:01:43.871Z,31.48
2022-12-11T23:04:10.224Z,28.83
2022-12-11T23:06:36.510Z,31.00
2022-12-11T23:09:03.279Z,31.02
2022-12-11T23:11:31.345Z,34.40
2022-12-11T23:13:57.638Z,34.47
2022-12-11T23:16:25.307Z,28.85
2022-12-11T23:18:51.651Z,31.88
2022-12-11T23:21:17.937Z,35.33
2022-12-11T23:23:44.282Z,28.35
2022-12-11T23:26:11.933Z,32.92
2022-12-11T23:28:38.666Z,32.33
2022-12-11T23:31:05.027Z,30.05
2022-12-11T23:33:31.293Z,30.98
2022-12-11T23:35:57.985Z,31.48
2022-12-11T23:38:24.671Z,31.75
2022-12-11T23:40:51.203Z,31.20
2022-12-11T23:43:17.590Z,32.78
2022-12-11T23:45:44.731Z,33.17
2022-12-11T23:48:12.493Z,41.55
2022-12-11T23:50:39.607Z,38.95
2022-12-11T23:53:06.008Z,34.72
2022-12-11T23:55:32.245Z,37.90
2022-12-11T23:57:58.544Z,36.10
